Malad City, ID

10:52 AM MST am 20. Dezember 2014 (GMT -0700)
Middle of city block | Change Station
CLOSE
Current Station
Persönliche Wetterstationen
Location: Malad City, ID
Höhe: 4662 ft
Wetterstationen in der Umgebung

Höhe 4662 ft 42.20 °N, 112.26 °W | Updated 27 seconds ago

Bedeckt
Bedeckt
34.8 °F
gefühlte 31 °F
N
4.0
Wind Wechselnd Wind aus Süd-Südwest
Gusts 4.0 mph

Heute
Max. -- | schwach -- °F
--% Regenrisiko
Gestern
Max. -- | schwach -- °F
Precip. -- inch
7:54 AM 4:59 PM
Letztes Viertel, 2% visible
Druck 30.10 inch
Sichtweite 7.0 Meilen
Wolken Teils Wolkig 2800 ft
Wolkig 4300 ft
Bedeckt 5000 ft
Windchill 31 °F
Taupunkt 28 °F
Feuchtigkeit 77%
Regen 0.14 inch
Schneehöhe Nicht verfügbar..
UV 0 von 12
Pollen .10 von 12
Luftqualität Nicht verfügbar..
Flu Activity Nicht verfügbar..
SPECI KLGU 201704Z AUTO 00000KT 7SM SCT028 BKN043 OVC050 03/02 A3010 RMK AO2 T00330017

More Conditions Fewer Conditions

Druck 30.10 inch
Sichtweite 7.0 Meilen
Wolken Teils Wolkig 2800 ft
Wolkig 4300 ft
Bedeckt 5000 ft
Windchill 31 °F
Taupunkt 28 °F
Feuchtigkeit 77%
Regen 0.14 inch
Schneehöhe Nicht verfügbar..
UV 0 von 12
Pollen .10 von 12
Luftqualität Nicht verfügbar..
Flu Activity Nicht verfügbar..
SPECI KLGU 201704Z AUTO 00000KT 7SM SCT028 BKN043 OVC050 03/02 A3010 RMK AO2 T00330017

More Conditions Fewer Conditions

10-Day Weather Forecast

Almanac

Astronomie

Dec. 20, 2014 Aufgang Untergang
Genaue Zeit
Bürgerliche Dämmerung
Nautische Dämmerung
Astronomische Dämmerung
Mond
Länge des sichtbaren Lichts
Tageslänge
Tomorrow will be .
, % of the Moon is Illuminated

Heutige Rekorde

State Highs State Lows

Community

WunderPhotos

Upload Photos

1,779,228 Fotos hochgeladen!

WunderBlogs® & News

Nearby

Luftqualität

  Luftqualität LQ Index Schadstoff
Not available.

Schneehöhe

Station Depth Höhe

Erdbebenaktivität

Stadt Distance Mag. Time & Date
Minimum magnitude displayed is 2.5.

küstennahe Wassertemperaturen

Ort Temperatur

Wetterstationen in der Umgebung